createdAt,value
2023-06-27T00:00:15.509Z,2.55
2023-06-27T00:05:24.915Z,2.45
2023-06-27T00:10:26.726Z,2.08
2023-06-27T00:15:30.420Z,2.80
2023-06-27T00:20:35.675Z,3.10
2023-06-27T00:25:37.689Z,2.58
2023-06-27T00:30:42.444Z,2.10
2023-06-27T00:35:47.435Z,2.35
2023-06-27T00:40:49.458Z,2.53
2023-06-27T00:45:51.636Z,2.17
2023-06-27T00:50:58.733Z,2.45
2023-06-27T00:56:05.093Z,2.60
2023-06-27T01:01:07.136Z,2.67
2023-06-27T01:06:28.983Z,2.63
2023-06-27T01:11:46.450Z,2.33
2023-06-27T01:16:49.225Z,2.30
2023-06-27T01:21:54.125Z,2.72
2023-06-27T01:27:01.877Z,2.38
2023-06-27T01:32:11.228Z,3.13
2023-06-27T01:37:25.352Z,2.85
2023-06-27T01:42:36.092Z,2.97
2023-06-27T01:47:43.209Z,2.92
2023-06-27T01:52:45.774Z,3.22
2023-06-27T01:57:51.973Z,3.45
2023-06-27T02:02:54.034Z,3.55
2023-06-27T02:07:55.809Z,3.20
2023-06-27T02:13:05.046Z,3.53
2023-06-27T02:18:09.125Z,3.85
2023-06-27T02:23:10.865Z,3.60
2023-06-27T02:28:14.815Z,3.50
2023-06-27T02:33:18.634Z,3.72
2023-06-27T02:38:22.764Z,3.80
2023-06-27T02:43:24.757Z,3.38
2023-06-27T02:48:26.592Z,3.40
2023-06-27T02:53:28.463Z,3.42
2023-06-27T02:58:31.551Z,4.22
2023-06-27T03:03:34.940Z,3.97
2023-06-27T03:08:40.606Z,4.00
2023-06-27T03:13:54.596Z,4.47
2023-06-27T03:18:56.808Z,4.22
2023-06-27T03:23:58.654Z,4.72
2023-06-27T03:29:04.619Z,4.50
2023-06-27T03:34:06.891Z,4.18
2023-06-27T03:39:09.134Z,4.75
2023-06-27T03:44:13.820Z,4.57
2023-06-27T03:49:17.916Z,3.90
2023-06-27T03:54:22.535Z,4.40
2023-06-27T03:59:26.822Z,4.50
2023-06-27T04:04:29.341Z,4.30
2023-06-27T04:09:31.225Z,4.65
2023-06-27T04:14:33.276Z,4.45
2023-06-27T04:19:37.357Z,4.40
2023-06-27T04:24:45.200Z,4.22
2023-06-27T04:29:52.023Z,4.40
2023-06-27T04:34:53.736Z,4.05
2023-06-27T04:39:55.433Z,3.83
2023-06-27T04:45:00.184Z,4.13
2023-06-27T04:50:01.871Z,4.45
2023-06-27T04:55:03.878Z,5.30
2023-06-27T05:00:11.010Z,4.57
2023-06-27T05:05:15.800Z,5.03
2023-06-27T05:10:17.568Z,4.97
2023-06-27T05:15:19.490Z,4.40
2023-06-27T05:20:24.002Z,4.97
2023-06-27T05:25:28.294Z,4.32
2023-06-27T05:30:30.992Z,3.85
2023-06-27T05:35:34.854Z,3.92
2023-06-27T05:40:39.529Z,3.95
2023-06-27T05:45:47.736Z,3.30
2023-06-27T05:50:52.174Z,3.38
2023-06-27T05:55:56.143Z,3.42
2023-06-27T06:00:57.901Z,3.17
2023-06-27T06:05:59.619Z,2.60
2023-06-27T06:11:05.567Z,2.33
2023-06-27T06:16:12.764Z,1.85
2023-06-27T06:21:17.667Z,2.38
2023-06-27T06:26:21.635Z,2.03
2023-06-27T06:31:25.855Z,2.33
2023-06-27T06:36:28.556Z,2.75
2023-06-27T06:41:32.909Z,2.45
2023-06-27T06:46:36.588Z,2.28
2023-06-27T06:51:38.500Z,1.88
2023-06-27T06:56:40.228Z,2.42
2023-06-27T07:01:47.108Z,2.33
2023-06-27T07:06:52.237Z,1.75
2023-06-27T07:11:58.399Z,1.58
2023-06-27T07:17:01.162Z,1.52
2023-06-27T07:22:07.920Z,1.55
2023-06-27T07:27:14.285Z,1.38
2023-06-27T07:32:22.764Z,1.30
2023-06-27T07:37:31.233Z,1.50
2023-06-27T07:42:39.653Z,1.33
2023-06-27T07:47:43.363Z,1.63
2023-06-27T07:53:24.216Z,1.33
2023-06-27T07:58:43.067Z,1.20
2023-06-27T08:04:04.141Z,1.10
2023-06-27T08:09:17.394Z,1.00
2023-06-27T08:14:26.034Z,1.02
2023-06-27T08:19:32.555Z,1.10
2023-06-27T08:24:48.494Z,1.15
2023-06-27T08:36:24.374Z,1.10
2023-06-27T08:41:28.465Z,1.23
2023-06-27T08:46:33.813Z,0.82
2023-06-27T08:51:38.858Z,1.23
2023-06-27T08:56:44.072Z,1.20
2023-06-27T09:01:49.257Z,1.27
2023-06-27T09:06:53.777Z,1.00
2023-06-27T09:11:58.308Z,1.10
2023-06-27T09:17:04.263Z,1.15
2023-06-27T09:22:14.620Z,1.77
2023-06-27T09:27:32.099Z,1.00
2023-06-27T09:32:36.413Z,1.38
2023-06-27T09:42:55.757Z,1.20
2023-06-27T09:48:00.767Z,1.05
2023-06-27T09:53:06.070Z,1.10
2023-06-27T09:58:10.002Z,1.38
2023-06-27T10:03:12.313Z,1.00
2023-06-27T10:08:19.413Z,0.95
2023-06-27T10:13:23.666Z,1.10
2023-06-27T10:18:25.387Z,0.70
2023-06-27T10:23:27.244Z,0.80
2023-06-27T10:28:32.811Z,0.88
2023-06-27T10:33:43.165Z,1.20
2023-06-27T10:38:47.798Z,1.23
2023-06-27T10:43:51.208Z,1.05
2023-06-27T10:48:56.641Z,1.10
2023-06-27T10:54:12.774Z,1.23
2023-06-27T10:59:19.022Z,0.90
2023-06-27T11:04:26.777Z,1.17
2023-06-27T11:09:30.824Z,1.45
2023-06-27T11:14:40.205Z,1.13
2023-06-27T11:19:44.778Z,1.05
2023-06-27T11:24:46.925Z,1.88
2023-06-27T11:29:48.744Z,1.40
2023-06-27T11:34:50.517Z,1.33
2023-06-27T11:39:54.392Z,1.27
2023-06-27T11:44:56.175Z,1.35
2023-06-27T11:50:08.848Z,1.10
2023-06-27T11:55:10.677Z,1.13
2023-06-27T12:00:19.713Z,1.00
2023-06-27T12:05:23.938Z,1.42
2023-06-27T12:10:25.814Z,1.33
2023-06-27T12:15:29.873Z,1.55
2023-06-27T12:20:42.496Z,1.52
2023-06-27T12:25:44.558Z,1.88
2023-06-27T12:30:46.377Z,1.10
2023-06-27T12:35:50.503Z,1.40
2023-06-27T12:40:52.233Z,1.45
2023-06-27T12:46:03.794Z,1.45
2023-06-27T12:51:05.589Z,1.40
2023-06-27T12:56:07.651Z,1.00
2023-06-27T13:01:11.316Z,1.45
2023-06-27T13:06:13.200Z,1.30
2023-06-27T13:11:19.687Z,1.60
2023-06-27T13:16:22.425Z,1.63
2023-06-27T13:21:24.282Z,1.90
2023-06-27T13:26:28.216Z,1.30
2023-06-27T13:31:30.093Z,1.30
2023-06-27T13:36:34.174Z,1.58
2023-06-27T13:41:35.977Z,1.13
2023-06-27T13:46:38.375Z,1.50
2023-06-27T13:51:40.452Z,1.30
2023-06-27T13:56:42.260Z,1.40
2023-06-27T14:01:44.024Z,1.95
2023-06-27T14:06:53.176Z,1.42
2023-06-27T14:11:55.023Z,1.77
2023-06-27T14:16:57.744Z,1.63
2023-06-27T14:21:59.537Z,1.60
2023-06-27T14:27:11.859Z,1.73
2023-06-27T14:32:18.290Z,1.63
2023-06-27T14:37:20.250Z,1.70
2023-06-27T14:42:24.333Z,1.60
2023-06-27T14:47:28.426Z,1.60
2023-06-27T14:52:32.574Z,2.10
2023-06-27T14:57:34.484Z,2.63
2023-06-27T15:02:36.502Z,1.70
2023-06-27T15:07:41.783Z,2.00
2023-06-27T15:12:43.724Z,1.60
2023-06-27T15:17:47.655Z,1.80
2023-06-27T15:22:49.697Z,2.00
2023-06-27T15:27:54.013Z,1.67
2023-06-27T15:33:03.324Z,1.52
2023-06-27T15:38:07.288Z,1.80
2023-06-27T15:43:12.230Z,2.25
2023-06-27T15:48:14.137Z,2.30
2023-06-27T15:53:21.233Z,1.73
2023-06-27T15:58:23.167Z,1.90
2023-06-27T16:03:25.084Z,1.40
2023-06-27T16:08:31.576Z,1.75
2023-06-27T16:13:33.500Z,1.48
2023-06-27T16:18:39.968Z,1.50
2023-06-27T16:23:43.893Z,1.73
2023-06-27T16:28:45.737Z,1.73
2023-06-27T16:33:47.588Z,1.58
2023-06-27T16:38:49.811Z,1.90
2023-06-27T16:43:53.664Z,1.80
2023-06-27T16:48:58.482Z,1.77
2023-06-27T16:54:00.324Z,1.30
2023-06-27T16:59:02.070Z,1.65
2023-06-27T17:04:06.140Z,1.83
2023-06-27T17:09:08.019Z,2.03
2023-06-27T17:14:10.108Z,1.60
2023-06-27T17:19:12.062Z,2.17
2023-06-27T17:24:13.879Z,2.08
2023-06-27T17:29:18.643Z,1.92
2023-06-27T17:34:20.485Z,1.77
2023-06-27T17:39:24.531Z,1.52
2023-06-27T17:44:31.437Z,1.85
2023-06-27T17:49:33.290Z,2.58
2023-06-27T17:54:39.981Z,1.88
2023-06-27T17:59:41.849Z,2.13
2023-06-27T18:04:45.957Z,1.77
2023-06-27T18:09:47.765Z,2.20
2023-06-27T18:14:49.953Z,1.98
2023-06-27T18:19:52.003Z,2.05
2023-06-27T18:24:57.436Z,2.03
2023-06-27T18:29:59.332Z,2.05
2023-06-27T18:35:01.346Z,2.25
2023-06-27T18:40:05.387Z,2.42
2023-06-27T18:45:07.558Z,1.80
2023-06-27T18:50:14.496Z,2.28
2023-06-27T18:55:20.158Z,1.90
2023-06-27T19:00:24.211Z,1.60
2023-06-27T19:05:26.030Z,2.05
2023-06-27T19:10:33.135Z,2.15
2023-06-27T19:15:35.639Z,1.80
2023-06-27T19:20:38.130Z,2.22
2023-06-27T19:25:42.883Z,1.88
2023-06-27T19:30:44.891Z,1.75
2023-06-27T19:35:46.872Z,2.05
2023-06-27T19:40:48.708Z,2.20
2023-06-27T19:45:52.782Z,1.75
2023-06-27T19:50:54.623Z,2.38
2023-06-27T19:55:56.468Z,2.15
2023-06-27T20:00:58.524Z,1.98
2023-06-27T20:06:03.418Z,2.10
2023-06-27T20:11:05.145Z,2.22
2023-06-27T20:16:07.030Z,1.92
2023-06-27T20:21:08.868Z,2.05
2023-06-27T20:26:13.310Z,2.45
2023-06-27T20:31:18.073Z,2.20
2023-06-27T20:36:19.903Z,2.00
2023-06-27T20:41:21.881Z,2.08
2023-06-27T20:46:23.803Z,2.35
2023-06-27T20:51:25.824Z,1.85
2023-06-27T20:56:27.850Z,2.42
2023-06-27T21:01:43.129Z,1.80
2023-06-27T21:06:47.358Z,1.60
2023-06-27T21:11:51.160Z,2.00
2023-06-27T21:16:59.078Z,2.15
2023-06-27T21:22:00.883Z,2.00
2023-06-27T21:27:03.196Z,2.20
2023-06-27T21:32:07.671Z,2.75
2023-06-27T21:37:16.548Z,2.13
2023-06-27T21:42:25.167Z,2.08
2023-06-27T21:47:27.268Z,2.08
2023-06-27T21:52:29.111Z,2.25
2023-06-27T21:57:33.137Z,1.70
2023-06-27T22:02:40.078Z,2.25
2023-06-27T22:07:42.048Z,2.40
2023-06-27T22:12:44.282Z,1.65
2023-06-27T22:17:46.080Z,1.90
2023-06-27T22:22:47.794Z,2.53
2023-06-27T22:27:55.054Z,3.00
2023-06-27T22:32:59.168Z,2.13
2023-06-27T22:38:06.384Z,2.40
2023-06-27T22:43:12.818Z,2.20
2023-06-27T22:48:14.563Z,1.90
2023-06-27T22:53:16.760Z,1.92
2023-06-27T22:58:21.011Z,2.38
2023-06-27T23:03:22.762Z,2.28
2023-06-27T23:08:27.040Z,1.95
2023-06-27T23:13:28.758Z,2.83
2023-06-27T23:18:35.180Z,2.17
2023-06-27T23:23:41.403Z,2.10
2023-06-27T23:29:01.312Z,2.70
2023-06-27T23:34:05.315Z,2.63
2023-06-27T23:39:10.889Z,2.13
2023-06-27T23:44:18.077Z,2.47
2023-06-27T23:49:22.488Z,2.22
2023-06-27T23:54:29.130Z,1.98
2023-06-27T23:59:32.692Z,2.20
